Time;durP1;ratioP1;P1;durP2;ratioP2;P2;SDS_P1;SDS_P2;PMS_P1;PMS_P2;Temp;Humidity;BMP_temperature;BMP_pressure;BME280_temperature;BME280_humidity;BME280_pressure;Samples;Min_cycle;Max_cycle;Signal;HPM_P1;HPM_P2
2023/08/18 00:01:15;;;;;;;4.47;1.77;;;;;;;;;;5023404;28;20037;-66
2023/08/18 00:03:44;;;;;;;2.83;1.90;;;;;;;;;;5027473;28;20057;-66
2023/08/18 00:06:11;;;;;;;3.65;1.45;;;;;;;;;;5031039;28;20045;-66
2023/08/18 00:08:38;;;;;;;3.72;1.63;;;;;;;;;;5025325;28;20493;-66
2023/08/18 00:11:05;;;;;;;1.42;1.33;;;;;;;;;;5028700;28;20064;-65
2023/08/18 00:13:33;;;;;;;2.08;1.40;;;;;;;;;;5029367;28;20140;-65
2023/08/18 00:16:00;;;;;;;3.40;1.30;;;;;;;;;;5028091;28;20409;-65
2023/08/18 00:18:27;;;;;;;2.78;1.67;;;;;;;;;;5025757;28;20056;-65
2023/08/18 00:20:56;;;;;;;2.15;1.33;;;;;;;;;;5031024;28;20049;-65
2023/08/18 00:23:23;;;;;;;2.78;1.42;;;;;;;;;;5030918;28;20053;-66
2023/08/18 00:25:50;;;;;;;2.22;1.45;;;;;;;;;;5023865;28;20053;-66
2023/08/18 00:28:18;;;;;;;4.90;1.45;;;;;;;;;;5027529;28;20050;-65
2023/08/18 00:30:45;;;;;;;3.00;1.60;;;;;;;;;;5029352;28;20065;-65
2023/08/18 00:33:13;;;;;;;2.97;1.60;;;;;;;;;;5026981;28;20052;-66
2023/08/18 00:35:40;;;;;;;2.08;1.60;;;;;;;;;;5029083;28;20049;-65
2023/08/18 00:38:08;;;;;;;2.55;1.45;;;;;;;;;;5028902;28;20045;-66
2023/08/18 00:40:36;;;;;;;1.65;1.30;;;;;;;;;;5030578;28;20045;-65
2023/08/18 00:43:03;;;;;;;3.08;1.48;;;;;;;;;;5028099;28;20413;-66
2023/08/18 00:45:30;;;;;;;2.03;1.40;;;;;;;;;;5027754;28;20049;-65
2023/08/18 00:47:58;;;;;;;3.67;1.70;;;;;;;;;;5030277;28;20045;-65
2023/08/18 00:50:25;;;;;;;2.78;1.52;;;;;;;;;;5024924;28;20053;-65
2023/08/18 00:52:57;;;;;;;2.97;1.55;;;;;;;;;;5029157;28;20076;-66
2023/08/18 00:55:27;;;;;;;4.10;1.52;;;;;;;;;;5027944;28;20575;-65
2023/08/18 00:57:56;;;;;;;2.15;1.50;;;;;;;;;;5028729;28;20041;-66
2023/08/18 01:00:23;;;;;;;3.70;1.67;;;;;;;;;;5029968;28;20453;-66
2023/08/18 01:02:51;;;;;;;1.67;1.35;;;;;;;;;;5028897;28;20050;-65
2023/08/18 01:05:18;;;;;;;2.97;1.58;;;;;;;;;;5024487;28;20082;-65
2023/08/18 01:07:46;;;;;;;2.03;1.42;;;;;;;;;;5026985;28;20108;-65
2023/08/18 01:10:13;;;;;;;3.65;1.70;;;;;;;;;;5029628;28;20045;-65
2023/08/18 01:12:44;;;;;;;1.92;1.50;;;;;;;;;;5027635;28;20061;-65
2023/08/18 01:15:14;;;;;;;1.80;1.30;;;;;;;;;;5029161;28;20370;-65
2023/08/18 01:17:43;;;;;;;1.80;1.55;;;;;;;;;;5025971;28;20045;-65
2023/08/18 01:20:11;;;;;;;5.03;1.75;;;;;;;;;;5024877;28;20049;-66
2023/08/18 01:22:39;;;;;;;2.47;1.50;;;;;;;;;;5025675;28;20046;-65
2023/08/18 01:25:08;;;;;;;3.88;1.70;;;;;;;;;;5027887;28;20389;-65
2023/08/18 01:27:35;;;;;;;3.60;1.67;;;;;;;;;;5029761;28;20059;-66
2023/08/18 01:30:03;;;;;;;2.78;1.63;;;;;;;;;;5026320;28;20408;-65
2023/08/18 01:32:31;;;;;;;7.50;1.75;;;;;;;;;;5025828;28;20053;-65
2023/08/18 01:35:00;;;;;;;2.35;1.48;;;;;;;;;;5025287;28;20056;-65
2023/08/18 01:37:27;;;;;;;2.55;1.88;;;;;;;;;;5024506;28;20052;-65
2023/08/18 01:39:56;;;;;;;2.85;1.75;;;;;;;;;;5020722;28;20517;-65
2023/08/18 01:42:24;;;;;;;2.78;1.90;;;;;;;;;;5027770;28;20046;-65
2023/08/18 01:44:52;;;;;;;3.10;1.85;;;;;;;;;;5029346;28;20045;-66
2023/08/18 01:47:19;;;;;;;6.97;2.00;;;;;;;;;;5026030;28;20068;-66
2023/08/18 01:49:46;;;;;;;3.17;1.90;;;;;;;;;;5029641;28;20739;-65
2023/08/18 01:52:13;;;;;;;8.65;2.20;;;;;;;;;;5029918;28;20404;-66
2023/08/18 01:54:40;;;;;;;4.00;1.60;;;;;;;;;;5025121;28;20045;-65
2023/08/18 01:57:08;;;;;;;5.10;2.05;;;;;;;;;;5032701;28;20507;-65
2023/08/18 01:59:37;;;;;;;4.47;1.88;;;;;;;;;;5030573;28;20132;-66
2023/08/18 02:02:04;;;;;;;4.47;1.90;;;;;;;;;;5033464;28;20049;-65
2023/08/18 02:04:31;;;;;;;1.88;1.50;;;;;;;;;;5032202;28;20610;-65
2023/08/18 02:06:59;;;;;;;2.72;1.70;;;;;;;;;;5033250;28;20060;-65
2023/08/18 02:09:26;;;;;;;3.92;2.10;;;;;;;;;;5031139;28;20496;-66
2023/08/18 02:11:53;;;;;;;3.97;2.00;;;;;;;;;;5030872;28;20053;-65
2023/08/18 02:14:20;;;;;;;4.38;2.20;;;;;;;;;;5031640;28;20049;-65
2023/08/18 02:16:49;;;;;;;2.20;1.90;;;;;;;;;;5031836;28;20166;-65
2023/08/18 02:19:16;;;;;;;3.97;1.98;;;;;;;;;;5028086;28;20045;-65
2023/08/18 02:21:43;;;;;;;5.10;1.90;;;;;;;;;;5031500;28;20050;-65
2023/08/18 02:24:11;;;;;;;4.63;2.10;;;;;;;;;;5033139;28;20068;-65
2023/08/18 02:26:38;;;;;;;2.55;1.98;;;;;;;;;;5030376;28;20088;-66
2023/08/18 02:29:05;;;;;;;2.88;1.92;;;;;;;;;;5029342;28;20052;-65
2023/08/18 02:31:33;;;;;;;3.88;2.20;;;;;;;;;;5030710;28;20045;-65
2023/08/18 02:34:02;;;;;;;3.83;2.05;;;;;;;;;;5029923;28;20045;-65
2023/08/18 02:36:29;;;;;;;3.20;1.70;;;;;;;;;;5027302;28;20041;-65
2023/08/18 02:38:56;;;;;;;2.53;2.10;;;;;;;;;;5030257;28;20516;-65
2023/08/18 02:41:24;;;;;;;3.40;1.92;;;;;;;;;;5030574;28;20052;-66
2023/08/18 02:43:51;;;;;;;3.45;1.88;;;;;;;;;;5025282;28;20053;-65
2023/08/18 02:46:18;;;;;;;2.47;1.90;;;;;;;;;;5028045;28;20045;-65
2023/08/18 02:48:45;;;;;;;2.55;1.65;;;;;;;;;;5032045;28;20053;-65
2023/08/18 02:51:14;;;;;;;6.03;2.30;;;;;;;;;;5031270;28;20041;-65
2023/08/18 02:53:42;;;;;;;2.60;1.92;;;;;;;;;;5032598;28;20099;-65
2023/08/18 02:56:09;;;;;;;3.75;1.90;;;;;;;;;;5031733;28;20041;-65
2023/08/18 02:58:37;;;;;;;3.67;2.00;;;;;;;;;;5030394;28;20064;-65
2023/08/18 03:01:05;;;;;;;3.53;1.80;;;;;;;;;;5030362;28;20046;-65
2023/08/18 03:03:32;;;;;;;4.25;2.15;;;;;;;;;;5027149;28;20053;-65
2023/08/18 03:06:01;;;;;;;3.20;2.08;;;;;;;;;;5024997;28;20060;-65
2023/08/18 03:08:29;;;;;;;4.28;1.85;;;;;;;;;;5023187;28;20049;-65
2023/08/18 03:10:57;;;;;;;2.78;1.70;;;;;;;;;;5025392;28;20053;-65
2023/08/18 03:13:24;;;;;;;3.00;1.80;;;;;;;;;;5022948;28;20049;-65
2023/08/18 03:15:51;;;;;;;3.55;1.98;;;;;;;;;;5024621;28;20058;-65
2023/08/18 03:18:19;;;;;;;3.53;1.90;;;;;;;;;;5029201;28;20042;-65
2023/08/18 03:20:47;;;;;;;3.22;2.28;;;;;;;;;;5029588;28;20049;-65
2023/08/18 03:23:15;;;;;;;3.13;2.08;;;;;;;;;;5030763;28;20046;-66
2023/08/18 03:25:43;;;;;;;3.85;2.40;;;;;;;;;;5023261;28;20057;-65
2023/08/18 03:28:11;;;;;;;3.13;2.15;;;;;;;;;;5025929;28;20113;-65
2023/08/18 03:30:39;;;;;;;5.05;2.05;;;;;;;;;;5023673;28;20053;-65
2023/08/18 03:33:06;;;;;;;5.57;2.22;;;;;;;;;;5024210;28;20061;-66
2023/08/18 03:35:35;;;;;;;3.42;2.35;;;;;;;;;;5028390;28;20053;-65
2023/08/18 03:38:02;;;;;;;4.32;2.42;;;;;;;;;;5021442;28;20049;-65
2023/08/18 03:40:30;;;;;;;3.55;2.38;;;;;;;;;;5030664;28;20052;-65
2023/08/18 03:42:58;;;;;;;3.53;2.65;;;;;;;;;;5025980;28;20058;-65
2023/08/18 03:45:25;;;;;;;5.32;2.60;;;;;;;;;;5029463;28;20138;-65
2023/08/18 03:47:53;;;;;;;5.57;2.80;;;;;;;;;;5027231;28;20056;-65
2023/08/18 03:50:21;;;;;;;4.90;2.70;;;;;;;;;;5028582;28;20058;-65
2023/08/18 03:52:48;;;;;;;4.30;2.60;;;;;;;;;;5030779;28;20053;-65
2023/08/18 03:55:16;;;;;;;4.13;2.67;;;;;;;;;;5030438;28;20052;-65
2023/08/18 03:57:43;;;;;;;3.95;2.90;;;;;;;;;;5028643;28;20148;-65
2023/08/18 04:00:13;;;;;;;5.00;2.83;;;;;;;;;;5028322;28;20369;-65
2023/08/18 04:02:40;;;;;;;5.30;2.80;;;;;;;;;;5027044;28;20061;-65
2023/08/18 04:05:08;;;;;;;5.82;2.55;;;;;;;;;;5029521;28;20061;-66
2023/08/18 04:07:35;;;;;;;4.43;2.85;;;;;;;;;;5029143;28;20041;-65
2023/08/18 04:10:03;;;;;;;4.20;2.60;;;;;;;;;;5030127;28;20045;-65
2023/08/18 04:12:30;;;;;;;4.40;2.60;;;;;;;;;;5027448;28;20228;-65
2023/08/18 04:14:57;;;;;;;5.15;3.15;;;;;;;;;;5025346;28;20049;-65
2023/08/18 04:17:26;;;;;;;6.03;3.10;;;;;;;;;;5029333;28;20477;-65
2023/08/18 04:19:53;;;;;;;5.45;3.30;;;;;;;;;;5024730;28;20413;-65
2023/08/18 04:22:20;;;;;;;6.13;3.35;;;;;;;;;;5027963;28;20400;-65
2023/08/18 04:24:47;;;;;;;4.20;2.78;;;;;;;;;;5026736;28;20068;-65
2023/08/18 04:27:15;;;;;;;5.15;2.70;;;;;;;;;;5029461;28;20045;-65
2023/08/18 04:29:42;;;;;;;3.80;2.83;;;;;;;;;;5025603;28;20057;-65
2023/08/18 04:32:09;;;;;;;3.78;2.50;;;;;;;;;;5026860;28;20060;-65
2023/08/18 04:34:38;;;;;;;5.32;2.88;;;;;;;;;;5029829;28;20053;-65
2023/08/18 04:37:05;;;;;;;4.97;2.75;;;;;;;;;;5027661;28;20057;-65
2023/08/18 04:39:32;;;;;;;5.40;3.03;;;;;;;;;;5028222;28;20053;-65
2023/08/18 04:42:00;;;;;;;6.10;2.80;;;;;;;;;;5029253;28;20107;-65
2023/08/18 04:44:28;;;;;;;6.65;3.13;;;;;;;;;;5029959;28;20136;-65
2023/08/18 04:46:55;;;;;;;5.97;2.78;;;;;;;;;;5026444;28;20064;-65
2023/08/18 04:49:22;;;;;;;6.70;3.28;;;;;;;;;;5026431;28;20053;-65
2023/08/18 04:51:51;;;;;;;7.13;3.80;;;;;;;;;;5028532;28;20131;-65
2023/08/18 04:54:18;;;;;;;6.78;3.13;;;;;;;;;;5025592;28;20045;-65
2023/08/18 04:56:45;;;;;;;7.88;3.60;;;;;;;;;;5024923;28;20057;-65
2023/08/18 04:59:12;;;;;;;6.97;3.45;;;;;;;;;;5028732;28;20041;-65
2023/08/18 05:01:40;;;;;;;7.43;3.95;;;;;;;;;;5030205;28;20057;-65
2023/08/18 05:04:07;;;;;;;8.57;3.60;;;;;;;;;;5026984;28;20057;-65
2023/08/18 05:06:34;;;;;;;8.63;4.07;;;;;;;;;;5030039;28;20041;-65
2023/08/18 05:09:05;;;;;;;6.65;3.58;;;;;;;;;;5026544;28;20059;-65
2023/08/18 05:11:32;;;;;;;5.65;3.30;;;;;;;;;;5027972;28;20053;-65
2023/08/18 05:13:59;;;;;;;7.20;3.20;;;;;;;;;;5028459;28;20049;-65
2023/08/18 05:16:26;;;;;;;6.85;3.05;;;;;;;;;;5024557;28;20064;-65
2023/08/18 05:18:54;;;;;;;7.72;3.50;;;;;;;;;;5029817;28;20060;-65
2023/08/18 05:21:21;;;;;;;6.88;3.53;;;;;;;;;;5029024;28;20425;-65
2023/08/18 05:23:49;;;;;;;8.57;3.35;;;;;;;;;;5030758;28;20465;-66
2023/08/18 05:26:18;;;;;;;7.70;3.63;;;;;;;;;;5027190;28;20102;-65
2023/08/18 05:28:47;;;;;;;5.38;3.47;;;;;;;;;;5033111;28;20060;-65
2023/08/18 05:31:14;;;;;;;10.80;3.33;;;;;;;;;;5030961;28;20570;-65
2023/08/18 05:33:41;;;;;;;12.27;3.47;;;;;;;;;;5032773;28;20116;-65
2023/08/18 05:36:09;;;;;;;5.07;3.05;;;;;;;;;;5033772;28;20054;-65
2023/08/18 05:38:36;;;;;;;4.55;3.20;;;;;;;;;;5033162;28;20049;-65
2023/08/18 05:41:07;;;;;;;5.90;3.15;;;;;;;;;;5033558;28;20405;-65
2023/08/18 05:43:37;;;;;;;6.03;3.40;;;;;;;;;;5030370;28;20519;-65
2023/08/18 05:46:04;;;;;;;6.10;3.10;;;;;;;;;;5029823;28;20468;-65
2023/08/18 05:48:33;;;;;;;4.53;3.15;;;;;;;;;;5031716;28;20049;-65
2023/08/18 05:51:00;;;;;;;5.00;3.20;;;;;;;;;;5023864;28;20041;-66
2023/08/18 05:53:27;;;;;;;5.38;3.10;;;;;;;;;;5032738;28;20053;-65
2023/08/18 05:55:54;;;;;;;4.22;3.03;;;;;;;;;;5042967;28;20053;-65
2023/08/18 05:58:22;;;;;;;5.22;3.25;;;;;;;;;;5033469;28;20049;-65
2023/08/18 06:00:51;;;;;;;5.95;3.13;;;;;;;;;;5029772;28;20041;-65
2023/08/18 06:03:19;;;;;;;5.18;2.95;;;;;;;;;;5032714;28;20413;-65
2023/08/18 06:05:47;;;;;;;6.85;3.42;;;;;;;;;;5031272;28;20049;-66
2023/08/18 06:08:14;;;;;;;4.88;3.30;;;;;;;;;;5031260;28;20041;-66
2023/08/18 06:10:41;;;;;;;5.28;2.85;;;;;;;;;;5030680;28;20053;-65
2023/08/18 06:13:09;;;;;;;5.88;3.05;;;;;;;;;;5031698;28;20053;-65
2023/08/18 06:15:36;;;;;;;5.43;3.00;;;;;;;;;;5028016;28;20076;-65
2023/08/18 06:18:05;;;;;;;7.15;3.05;;;;;;;;;;5030571;28;20072;-65
2023/08/18 06:20:32;;;;;;;8.20;3.35;;;;;;;;;;5028509;28;20064;-65
2023/08/18 06:22:59;;;;;;;5.97;3.03;;;;;;;;;;5028618;28;20053;-66
2023/08/18 06:25:26;;;;;;;4.90;3.20;;;;;;;;;;5029238;28;20041;-66
2023/08/18 06:27:54;;;;;;;6.55;3.33;;;;;;;;;;5027064;28;20056;-65
2023/08/18 06:30:22;;;;;;;5.97;3.22;;;;;;;;;;5028168;28;20049;-66
2023/08/18 06:32:49;;;;;;;6.43;3.08;;;;;;;;;;5026684;28;20053;-65
2023/08/18 06:35:18;;;;;;;6.38;3.13;;;;;;;;;;5025476;28;20056;-65
2023/08/18 06:37:45;;;;;;;7.22;3.13;;;;;;;;;;5027627;28;20045;-66
2023/08/18 06:40:13;;;;;;;4.80;3.17;;;;;;;;;;5025952;28;20410;-66
2023/08/18 06:42:40;;;;;;;4.95;2.95;;;;;;;;;;5028057;28;20056;-66
2023/08/18 06:45:08;;;;;;;5.20;3.25;;;;;;;;;;5026561;28;20048;-65
2023/08/18 06:47:35;;;;;;;4.93;2.90;;;;;;;;;;5030349;28;20062;-65
2023/08/18 06:50:05;;;;;;;4.63;3.03;;;;;;;;;;5020929;28;20053;-65
2023/08/18 06:52:34;;;;;;;5.30;3.08;;;;;;;;;;5029691;28;20100;-66
2023/08/18 06:55:01;;;;;;;4.25;2.80;;;;;;;;;;5026778;28;20053;-65
2023/08/18 06:57:28;;;;;;;8.00;3.05;;;;;;;;;;5025168;28;20079;-66
2023/08/18 06:59:56;;;;;;;5.20;3.03;;;;;;;;;;5032048;28;20041;-65
2023/08/18 07:02:23;;;;;;;5.60;3.40;;;;;;;;;;5029680;28;20045;-65
2023/08/18 07:04:50;;;;;;;7.90;3.47;;;;;;;;;;5031562;28;20140;-65
2023/08/18 07:07:17;;;;;;;5.60;3.15;;;;;;;;;;5031151;28;20046;-65
2023/08/18 07:09:46;;;;;;;6.05;3.38;;;;;;;;;;5028485;28;20056;-65
2023/08/18 07:12:13;;;;;;;6.57;3.25;;;;;;;;;;5024098;28;20057;-65
2023/08/18 07:14:41;;;;;;;6.60;3.50;;;;;;;;;;5030789;28;20132;-65
2023/08/18 07:17:08;;;;;;;5.90;3.25;;;;;;;;;;5024238;28;20049;-65
2023/08/18 07:19:35;;;;;;;5.47;3.65;;;;;;;;;;5025492;28;20053;-65
2023/08/18 07:22:03;;;;;;;5.20;3.08;;;;;;;;;;5030693;28;20514;-65
2023/08/18 07:24:30;;;;;;;10.32;3.60;;;;;;;;;;5027056;28;20053;-65
2023/08/18 07:26:59;;;;;;;5.07;3.15;;;;;;;;;;5029792;28;20048;-66
2023/08/18 07:29:26;;;;;;;6.25;3.17;;;;;;;;;;5030698;28;20042;-65
2023/08/18 07:31:53;;;;;;;5.88;3.33;;;;;;;;;;5030479;28;20405;-65
2023/08/18 07:34:21;;;;;;;6.65;3.22;;;;;;;;;;5027836;28;20586;-65
2023/08/18 07:36:48;;;;;;;6.78;3.50;;;;;;;;;;5026143;28;20389;-65
2023/08/18 07:39:15;;;;;;;5.57;3.10;;;;;;;;;;5026563;28;20406;-65
2023/08/18 07:41:42;;;;;;;4.93;3.50;;;;;;;;;;5021428;28;20048;-66
2023/08/18 07:44:11;;;;;;;4.57;3.28;;;;;;;;;;5026501;28;20056;-65
2023/08/18 07:46:40;;;;;;;5.47;3.08;;;;;;;;;;5026874;28;20473;-65
2023/08/18 07:49:07;;;;;;;4.15;3.15;;;;;;;;;;5029171;28;20142;-65
2023/08/18 07:51:34;;;;;;;5.20;2.85;;;;;;;;;;5028630;28;20058;-66
2023/08/18 07:54:01;;;;;;;5.70;3.05;;;;;;;;;;5028596;28;20052;-65
2023/08/18 07:56:29;;;;;;;4.32;2.80;;;;;;;;;;5030045;28;20335;-65
2023/08/18 07:58:56;;;;;;;6.35;2.85;;;;;;;;;;5027957;28;20041;-65
2023/08/18 08:01:25;;;;;;;5.60;3.47;;;;;;;;;;5025992;28;20046;-65
2023/08/18 08:03:52;;;;;;;6.53;3.20;;;;;;;;;;5027122;28;20057;-65
2023/08/18 08:06:20;;;;;;;3.40;2.75;;;;;;;;;;5029451;28;20056;-65
2023/08/18 08:08:47;;;;;;;5.53;3.10;;;;;;;;;;5030226;28;20516;-65
2023/08/18 08:11:14;;;;;;;5.10;3.03;;;;;;;;;;5030167;28;20056;-65
2023/08/18 08:13:42;;;;;;;5.80;3.42;;;;;;;;;;5027988;28;20049;-65
2023/08/18 08:16:09;;;;;;;6.57;3.25;;;;;;;;;;5027434;28;20060;-66
2023/08/18 08:18:37;;;;;;;7.70;3.15;;;;;;;;;;5027998;28;20128;-65
2023/08/18 08:21:05;;;;;;;7.65;3.47;;;;;;;;;;5023462;28;20495;-65
2023/08/18 08:23:32;;;;;;;6.38;3.65;;;;;;;;;;5026849;28;20053;-65
2023/08/18 08:25:59;;;;;;;5.40;3.60;;;;;;;;;;5021771;28;20053;-65
2023/08/18 08:28:27;;;;;;;7.78;3.80;;;;;;;;;;5021421;28;20049;-66
2023/08/18 08:30:54;;;;;;;7.28;3.72;;;;;;;;;;5028433;28;20045;-66
2023/08/18 08:33:22;;;;;;;5.40;3.90;;;;;;;;;;5021468;28;20056;-65
2023/08/18 08:35:51;;;;;;;6.90;3.90;;;;;;;;;;5026337;28;20501;-65
2023/08/18 08:38:18;;;;;;;5.25;3.50;;;;;;;;;;5025084;28;20053;-66
2023/08/18 08:40:48;;;;;;;6.03;3.63;;;;;;;;;;5026672;28;20056;-65
2023/08/18 08:43:15;;;;;;;6.75;3.78;;;;;;;;;;5028745;28;20054;-66
2023/08/18 08:45:43;;;;;;;6.72;4.05;;;;;;;;;;5020386;28;20405;-66
2023/08/18 08:48:12;;;;;;;8.02;3.75;;;;;;;;;;5020960;28;20132;-65
2023/08/18 08:50:41;;;;;;;7.20;3.58;;;;;;;;;;5020492;28;20072;-66
2023/08/18 08:53:12;;;;;;;7.53;3.83;;;;;;;;;;5027891;28;20049;-66
2023/08/18 08:55:40;;;;;;;8.25;4.07;;;;;;;;;;5025221;28;20052;-66
2023/08/18 08:58:07;;;;;;;6.82;3.95;;;;;;;;;;5029567;28;20444;-66
2023/08/18 09:00:35;;;;;;;7.55;3.75;;;;;;;;;;5025504;28;20045;-65
2023/08/18 09:03:02;;;;;;;10.73;4.05;;;;;;;;;;5022809;28;20049;-65
2023/08/18 09:05:31;;;;;;;6.68;4.10;;;;;;;;;;5026444;28;20050;-66
2023/08/18 09:07:58;;;;;;;7.38;4.10;;;;;;;;;;5030281;28;20061;-66
2023/08/18 09:10:27;;;;;;;7.82;4.00;;;;;;;;;;5025699;28;20048;-65
2023/08/18 09:12:54;;;;;;;5.25;4.10;;;;;;;;;;5029855;28;20045;-65
2023/08/18 09:15:23;;;;;;;7.47;3.83;;;;;;;;;;5029844;28;20087;-65
2023/08/18 09:17:51;;;;;;;8.43;4.50;;;;;;;;;;5028228;28;20053;-65
2023/08/18 09:20:18;;;;;;;6.72;4.15;;;;;;;;;;5028469;28;20046;-66
2023/08/18 09:22:46;;;;;;;6.18;3.55;;;;;;;;;;5024549;28;20038;-66
2023/08/18 09:25:13;;;;;;;6.40;3.67;;;;;;;;;;5020368;28;20046;-65
2023/08/18 09:27:42;;;;;;;6.13;3.53;;;;;;;;;;5026866;28;20053;-66
2023/08/18 09:30:10;;;;;;;6.30;3.90;;;;;;;;;;5026944;28;20041;-66
2023/08/18 09:32:37;;;;;;;5.75;3.67;;;;;;;;;;5022488;28;20064;-66
2023/08/18 09:35:04;;;;;;;6.82;3.70;;;;;;;;;;5029976;28;20053;-66
2023/08/18 09:37:32;;;;;;;6.10;3.17;;;;;;;;;;5023961;28;20062;-66
2023/08/18 09:39:59;;;;;;;5.70;3.38;;;;;;;;;;5021277;28;20686;-65
2023/08/18 09:42:27;;;;;;;4.55;3.58;;;;;;;;;;5027233;28;20045;-66
2023/08/18 09:44:56;;;;;;;7.63;3.92;;;;;;;;;;5020466;28;20050;-65
2023/08/18 09:47:23;;;;;;;4.90;3.10;;;;;;;;;;5021416;28;20046;-66
2023/08/18 09:49:52;;;;;;;6.13;3.47;;;;;;;;;;5022445;28;20061;-66
2023/08/18 09:52:20;;;;;;;8.45;3.75;;;;;;;;;;5027640;28;20050;-65
2023/08/18 09:54:51;;;;;;;7.43;3.55;;;;;;;;;;5028931;28;20053;-66
2023/08/18 09:57:19;;;;;;;6.28;3.60;;;;;;;;;;5028970;28;20041;-65
2023/08/18 09:59:51;;;;;;;5.10;3.60;;;;;;;;;;5029311;28;20053;-66
2023/08/18 10:02:23;;;;;;;5.78;3.60;;;;;;;;;;5028391;28;20053;-66
2023/08/18 10:04:51;;;;;;;6.90;3.55;;;;;;;;;;5029348;28;20501;-66
2023/08/18 10:07:19;;;;;;;6.88;3.75;;;;;;;;;;5021875;28;20374;-66
2023/08/18 10:09:47;;;;;;;7.07;4.05;;;;;;;;;;5031140;28;20208;-66
2023/08/18 10:12:14;;;;;;;7.75;4.13;;;;;;;;;;5027638;28;20516;-66
2023/08/18 10:14:43;;;;;;;7.57;4.03;;;;;;;;;;5031845;28;20089;-66
2023/08/18 10:17:11;;;;;;;7.18;3.90;;;;;;;;;;5024173;28;20054;-66
2023/08/18 10:19:49;;;;;;;5.68;3.90;;;;;;;;;;5031562;28;20065;-66
2023/08/18 10:22:17;;;;;;;5.93;3.75;;;;;;;;;;5032138;28;20133;-66
2023/08/18 10:24:46;;;;;;;8.50;4.43;;;;;;;;;;5028215;28;20065;-66
2023/08/18 10:27:14;;;;;;;10.93;5.22;;;;;;;;;;5031439;28;20049;-66
2023/08/18 10:29:44;;;;;;;7.53;4.03;;;;;;;;;;5029006;28;20435;-66
2023/08/18 10:32:13;;;;;;;10.13;4.57;;;;;;;;;;5028572;28;20049;-66
2023/08/18 10:34:40;;;;;;;7.85;4.13;;;;;;;;;;5028702;28;20057;-66
2023/08/18 10:37:10;;;;;;;7.93;4.15;;;;;;;;;;5029178;28;20041;-66
2023/08/18 10:39:37;;;;;;;9.63;4.68;;;;;;;;;;5023731;28;20076;-66
2023/08/18 10:42:05;;;;;;;7.63;4.22;;;;;;;;;;5027997;28;20370;-66
2023/08/18 10:44:32;;;;;;;7.60;3.83;;;;;;;;;;5031018;28;20046;-66
2023/08/18 10:47:02;;;;;;;11.88;4.53;;;;;;;;;;5029609;28;20064;-66
2023/08/18 10:49:29;;;;;;;12.38;4.97;;;;;;;;;;5026418;28;20132;-66
2023/08/18 10:51:57;;;;;;;10.10;4.28;;;;;;;;;;5031856;28;20041;-66
2023/08/18 10:54:26;;;;;;;12.32;4.75;;;;;;;;;;5027232;28;20053;-65
2023/08/18 10:56:53;;;;;;;8.05;4.70;;;;;;;;;;5031609;28;20049;-66
2023/08/18 10:59:20;;;;;;;8.80;4.38;;;;;;;;;;5032719;28;20397;-66
2023/08/18 11:01:48;;;;;;;13.10;4.75;;;;;;;;;;5031122;28;20046;-66
2023/08/18 11:04:16;;;;;;;8.25;4.10;;;;;;;;;;5029176;28;20402;-66
2023/08/18 11:06:43;;;;;;;8.13;4.35;;;;;;;;;;5029051;28;20049;-66
2023/08/18 11:09:11;;;;;;;10.93;4.65;;;;;;;;;;5032524;28;20053;-66
2023/08/18 11:11:40;;;;;;;9.57;4.10;;;;;;;;;;5045592;28;20049;-66
2023/08/18 11:14:08;;;;;;;13.63;4.90;;;;;;;;;;5032196;28;20045;-66
2023/08/18 11:16:38;;;;;;;10.95;4.13;;;;;;;;;;5028254;28;20049;-66
2023/08/18 11:19:06;;;;;;;11.85;4.90;;;;;;;;;;5029575;28;20107;-66
2023/08/18 11:21:35;;;;;;;12.27;4.00;;;;;;;;;;5027958;28;20439;-66
2023/08/18 11:24:04;;;;;;;11.27;4.90;;;;;;;;;;5028837;28;20132;-66
2023/08/18 11:26:34;;;;;;;12.02;4.60;;;;;;;;;;5028801;28;20051;-66
2023/08/18 11:29:03;;;;;;;8.38;4.30;;;;;;;;;;5024992;28;20084;-66
2023/08/18 11:31:30;;;;;;;8.32;4.32;;;;;;;;;;5028408;28;20053;-66
2023/08/18 11:33:57;;;;;;;11.05;4.60;;;;;;;;;;5030067;28;21732;-66
2023/08/18 11:36:29;;;;;;;6.90;4.20;;;;;;;;;;5031796;28;20057;-65
2023/08/18 11:38:57;;;;;;;9.93;4.57;;;;;;;;;;5027555;28;20049;-66
2023/08/18 11:41:24;;;;;;;11.18;5.00;;;;;;;;;;5027544;28;20504;-66
2023/08/18 11:43:52;;;;;;;10.15;4.60;;;;;;;;;;5029147;28;20120;-66
2023/08/18 11:46:21;;;;;;;9.05;4.40;;;;;;;;;;5026399;28;20053;-66
2023/08/18 11:48:48;;;;;;;8.73;4.85;;;;;;;;;;5026004;28;20042;-66
2023/08/18 11:51:17;;;;;;;6.97;4.50;;;;;;;;;;5028231;28;20137;-66
2023/08/18 11:53:45;;;;;;;7.13;4.72;;;;;;;;;;5025889;28;20053;-66
2023/08/18 11:56:12;;;;;;;7.75;4.40;;;;;;;;;;5026935;28;20127;-65
2023/08/18 11:58:41;;;;;;;8.75;5.00;;;;;;;;;;5030957;28;20056;-66
2023/08/18 12:01:11;;;;;;;10.43;5.53;;;;;;;;;;5028733;28;20513;-66
2023/08/18 12:03:40;;;;;;;9.27;4.70;;;;;;;;;;5029982;28;20063;-66
2023/08/18 12:06:07;;;;;;;8.32;4.63;;;;;;;;;;5030732;28;20123;-66
2023/08/18 12:08:34;;;;;;;9.27;4.88;;;;;;;;;;5029659;28;20413;-66
2023/08/18 12:11:02;;;;;;;9.40;4.35;;;;;;;;;;5029219;28;20042;-66
2023/08/18 12:13:31;;;;;;;7.38;5.00;;;;;;;;;;5029561;28;20077;-66
2023/08/18 12:15:58;;;;;;;9.60;4.95;;;;;;;;;;5027222;28;20049;-66
2023/08/18 12:18:25;;;;;;;6.78;4.60;;;;;;;;;;5029254;28;20416;-66
2023/08/18 12:20:54;;;;;;;9.40;4.80;;;;;;;;;;5029170;28;20057;-66
2023/08/18 12:23:21;;;;;;;7.85;5.22;;;;;;;;;;5031389;28;20388;-66
2023/08/18 12:25:48;;;;;;;8.68;4.45;;;;;;;;;;5024361;28;20064;-66
2023/08/18 12:28:17;;;;;;;8.23;4.80;;;;;;;;;;5026605;28;20049;-66
2023/08/18 12:30:45;;;;;;;6.18;4.55;;;;;;;;;;5022919;28;20091;-66
2023/08/18 12:33:12;;;;;;;9.38;4.38;;;;;;;;;;5029133;28;20492;-66
2023/08/18 12:35:39;;;;;;;6.32;4.18;;;;;;;;;;5029401;28;20064;-66
2023/08/18 12:38:08;;;;;;;7.93;4.18;;;;;;;;;;5030231;28;20061;-66
2023/08/18 12:40:35;;;;;;;8.55;4.07;;;;;;;;;;5026210;28;20492;-66
2023/08/18 12:43:02;;;;;;;6.43;4.40;;;;;;;;;;5029579;28;20045;-66
2023/08/18 12:45:30;;;;;;;7.10;4.93;;;;;;;;;;5028813;28;20099;-66
2023/08/18 12:47:57;;;;;;;6.35;4.20;;;;;;;;;;5029173;28;20072;-66
2023/08/18 12:50:24;;;;;;;7.55;3.80;;;;;;;;;;5027233;28;20046;-66
2023/08/18 12:52:51;;;;;;;6.53;4.55;;;;;;;;;;5026241;28;20051;-66
2023/08/18 12:55:20;;;;;;;8.40;4.65;;;;;;;;;;5024294;28;20046;-66
2023/08/18 12:57:47;;;;;;;6.55;4.60;;;;;;;;;;5029237;28;20075;-66
2023/08/18 13:00:15;;;;;;;7.30;4.78;;;;;;;;;;5030342;28;20046;-66
2023/08/18 13:02:42;;;;;;;6.85;4.53;;;;;;;;;;5028644;28;20056;-66
2023/08/18 13:05:09;;;;;;;5.85;4.53;;;;;;;;;;5026740;28;20125;-66
2023/08/18 13:07:37;;;;;;;7.88;5.15;;;;;;;;;;5027567;28;20056;-66
2023/08/18 13:10:04;;;;;;;6.65;4.70;;;;;;;;;;5028202;28;20038;-66
2023/08/18 13:12:33;;;;;;;6.38;4.20;;;;;;;;;;5029899;28;20046;-66
2023/08/18 13:15:00;;;;;;;4.88;4.35;;;;;;;;;;5029287;28;20050;-66
2023/08/18 13:17:27;;;;;;;6.50;4.38;;;;;;;;;;5027056;28;20424;-66
2023/08/18 13:19:54;;;;;;;6.35;4.15;;;;;;;;;;5028160;28;20058;-66
2023/08/18 13:22:22;;;;;;;5.50;4.25;;;;;;;;;;5028425;28;20049;-66
2023/08/18 13:24:49;;;;;;;7.07;4.60;;;;;;;;;;5027238;28;20048;-66
2023/08/18 13:27:17;;;;;;;6.45;4.65;;;;;;;;;;5029398;28;20050;-67
2023/08/18 13:29:46;;;;;;;5.80;4.47;;;;;;;;;;5029693;28;20053;-67
2023/08/18 13:32:13;;;;;;;6.05;4.30;;;;;;;;;;5026413;28;20042;-66
2023/08/18 13:34:40;;;;;;;6.28;4.40;;;;;;;;;;5027028;28;20049;-67
2023/08/18 13:37:08;;;;;;;7.45;4.70;;;;;;;;;;5024603;28;20450;-66
2023/08/18 13:39:35;;;;;;;5.80;4.40;;;;;;;;;;5027619;28;20046;-67
2023/08/18 13:42:02;;;;;;;6.40;4.57;;;;;;;;;;5025629;28;20052;-66
2023/08/18 13:44:30;;;;;;;5.00;4.30;;;;;;;;;;5029548;28;20049;-66
2023/08/18 13:46:59;;;;;;;7.00;4.80;;;;;;;;;;5030798;28;20049;-66
2023/08/18 13:49:27;;;;;;;5.65;4.50;;;;;;;;;;5033750;28;20057;-67
2023/08/18 13:51:54;;;;;;;4.63;3.60;;;;;;;;;;5029830;28;20056;-67
2023/08/18 13:54:22;;;;;;;7.40;4.22;;;;;;;;;;5030840;28;20048;-67
2023/08/18 13:56:49;;;;;;;5.35;4.15;;;;;;;;;;5033033;28;20041;-67
2023/08/18 13:59:16;;;;;;;5.70;3.70;;;;;;;;;;5031465;28;20065;-67
2023/08/18 14:01:44;;;;;;;5.65;4.00;;;;;;;;;;5032344;28;20049;-66
2023/08/18 14:04:12;;;;;;;7.38;4.25;;;;;;;;;;5031870;28;20379;-66
2023/08/18 14:06:39;;;;;;;6.28;4.35;;;;;;;;;;5031697;28;20046;-66
2023/08/18 14:09:07;;;;;;;4.90;4.40;;;;;;;;;;5033280;28;20129;-66
2023/08/18 14:11:35;;;;;;;6.63;5.10;;;;;;;;;;5028559;28;20037;-66
2023/08/18 14:14:02;;;;;;;6.43;4.95;;;;;;;;;;5030757;28;20536;-66
2023/08/18 14:16:30;;;;;;;8.95;5.32;;;;;;;;;;5028933;28;20061;-66
2023/08/18 14:18:57;;;;;;;6.82;5.30;;;;;;;;;;5030863;28;20061;-66
2023/08/18 14:21:27;;;;;;;6.50;5.13;;;;;;;;;;5030838;28;20136;-66
2023/08/18 14:23:54;;;;;;;7.85;4.57;;;;;;;;;;5031449;28;20124;-67
2023/08/18 14:26:21;;;;;;;6.38;4.95;;;;;;;;;;5030642;28;20481;-66
2023/08/18 14:28:48;;;;;;;6.53;4.90;;;;;;;;;;5032287;28;20050;-67
2023/08/18 14:31:16;;;;;;;5.90;4.70;;;;;;;;;;5029063;28;20041;-67
2023/08/18 14:33:43;;;;;;;6.60;4.55;;;;;;;;;;5028146;28;20046;-67
2023/08/18 14:36:11;;;;;;;5.93;4.38;;;;;;;;;;5032154;28;20543;-66
2023/08/18 14:38:39;;;;;;;7.45;4.72;;;;;;;;;;5027139;28;20540;-66
2023/08/18 14:41:06;;;;;;;7.07;5.43;;;;;;;;;;5028412;28;20052;-66
2023/08/18 14:43:35;;;;;;;6.13;4.95;;;;;;;;;;5028557;28;20077;-67
2023/08/18 14:46:04;;;;;;;6.43;4.90;;;;;;;;;;5028961;28;20076;-66